sensor_id;sensor_type;location;lat;lon;timestamp;temperature;humidity
49242;DHT22;35079;52.704;13.814;2023-04-01T00:02:22;9.30;99.90
49242;DHT22;35079;52.704;13.814;2023-04-01T00:04:48;9.30;99.90
49242;DHT22;35079;52.704;13.814;2023-04-01T00:07:14;9.30;99.90
49242;DHT22;35079;52.704;13.814;2023-04-01T00:09:39;9.40;99.90
49242;DHT22;35079;52.704;13.814;2023-04-01T00:12:05;9.40;99.90
49242;DHT22;35079;52.704;13.814;2023-04-01T00:14:30;9.30;99.90
49242;DHT22;35079;52.704;13.814;2023-04-01T00:16:56;9.30;99.90
49242;DHT22;35079;52.704;13.814;2023-04-01T00:19:22;9.40;99.90
49242;DHT22;35079;52.704;13.814;2023-04-01T00:21:47;9.30;99.90
49242;DHT22;35079;52.704;13.814;2023-04-01T00:24:13;9.20;99.90
49242;DHT22;35079;52.704;13.814;2023-04-01T00:26:39;9.20;99.90
49242;DHT22;35079;52.704;13.814;2023-04-01T00:29:07;9.20;99.90
49242;DHT22;35079;52.704;13.814;2023-04-01T00:31:33;9.30;99.90
49242;DHT22;35079;52.704;13.814;2023-04-01T00:33:59;9.40;99.90
49242;DHT22;35079;52.704;13.814;2023-04-01T00:36:25;9.20;99.90
49242;DHT22;35079;52.704;13.814;2023-04-01T00:38:51;9.20;99.90
49242;DHT22;35079;52.704;13.814;2023-04-01T00:41:18;9.40;99.90
49242;DHT22;35079;52.704;13.814;2023-04-01T00:43:46;9.30;99.90
49242;DHT22;35079;52.704;13.814;2023-04-01T00:46:13;9.40;99.90
49242;DHT22;35079;52.704;13.814;2023-04-01T00:48:51;9.30;99.90
49242;DHT22;35079;52.704;13.814;2023-04-01T00:51:23;9.30;99.90
49242;DHT22;35079;52.704;13.814;2023-04-01T00:53:53;9.30;99.90
49242;DHT22;35079;52.704;13.814;2023-04-01T00:56:22;9.30;99.90
49242;DHT22;35079;52.704;13.814;2023-04-01T00:58:57;9.30;99.90
49242;DHT22;35079;52.704;13.814;2023-04-01T01:01:24;9.30;99.90
49242;DHT22;35079;52.704;13.814;2023-04-01T01:03:50;9.20;99.90
49242;DHT22;35079;52.704;13.814;2023-04-01T01:11:26;9.20;99.90
49242;DHT22;35079;52.704;13.814;2023-04-01T01:14:25;9.30;99.90
49242;DHT22;35079;52.704;13.814;2023-04-01T01:17:06;9.30;99.90
49242;DHT22;35079;52.704;13.814;2023-04-01T01:22:45;9.30;99.90
49242;DHT22;35079;52.704;13.814;2023-04-01T01:25:33;9.10;99.90
49242;DHT22;35079;52.704;13.814;2023-04-01T01:34:14;9.10;99.90
49242;DHT22;35079;52.704;13.814;2023-04-01T01:36:42;9.20;99.90
49242;DHT22;35079;52.704;13.814;2023-04-01T01:39:12;9.20;99.90
49242;DHT22;35079;52.704;13.814;2023-04-01T01:41:41;9.20;99.90
49242;DHT22;35079;52.704;13.814;2023-04-01T01:44:09;9.10;99.90
49242;DHT22;35079;52.704;13.814;2023-04-01T01:46:38;9.20;99.90
49242;DHT22;35079;52.704;13.814;2023-04-01T01:49:06;9.10;99.90
49242;DHT22;35079;52.704;13.814;2023-04-01T01:51:32;9.20;99.90
49242;DHT22;35079;52.704;13.814;2023-04-01T01:53:59;9.20;99.90
49242;DHT22;35079;52.704;13.814;2023-04-01T01:56:27;9.30;99.90
49242;DHT22;35079;52.704;13.814;2023-04-01T01:59:00;9.20;99.90
49242;DHT22;35079;52.704;13.814;2023-04-01T02:01:30;9.20;99.90
49242;DHT22;35079;52.704;13.814;2023-04-01T02:03:57;9.30;99.90
49242;DHT22;35079;52.704;13.814;2023-04-01T02:06:27;9.20;99.90
49242;DHT22;35079;52.704;13.814;2023-04-01T02:09:00;9.30;99.90
49242;DHT22;35079;52.704;13.814;2023-04-01T02:11:53;9.20;99.90
49242;DHT22;35079;52.704;13.814;2023-04-01T02:17:16;9.10;99.90
49242;DHT22;35079;52.704;13.814;2023-04-01T02:20:01;9.20;99.90
49242;DHT22;35079;52.704;13.814;2023-04-01T02:22:32;9.20;99.90
49242;DHT22;35079;52.704;13.814;2023-04-01T02:25:04;9.20;99.90
49242;DHT22;35079;52.704;13.814;2023-04-01T02:27:31;9.30;99.90
49242;DHT22;35079;52.704;13.814;2023-04-01T02:29:57;9.10;99.90
49242;DHT22;35079;52.704;13.814;2023-04-01T02:32:24;9.20;99.90
49242;DHT22;35079;52.704;13.814;2023-04-01T02:34:51;9.30;99.90
49242;DHT22;35079;52.704;13.814;2023-04-01T02:37:17;9.30;99.90
49242;DHT22;35079;52.704;13.814;2023-04-01T02:39:43;9.30;99.90
49242;DHT22;35079;52.704;13.814;2023-04-01T02:42:09;9.20;99.90
49242;DHT22;35079;52.704;13.814;2023-04-01T02:44:35;9.20;99.90
49242;DHT22;35079;52.704;13.814;2023-04-01T02:47:01;9.20;99.90
49242;DHT22;35079;52.704;13.814;2023-04-01T02:49:27;9.30;99.90
49242;DHT22;35079;52.704;13.814;2023-04-01T02:51:52;9.30;99.90
49242;DHT22;35079;52.704;13.814;2023-04-01T02:54:18;9.30;99.90
49242;DHT22;35079;52.704;13.814;2023-04-01T02:56:44;9.20;99.90
49242;DHT22;35079;52.704;13.814;2023-04-01T02:59:11;9.20;99.90
49242;DHT22;35079;52.704;13.814;2023-04-01T03:01:36;9.10;99.90
49242;DHT22;35079;52.704;13.814;2023-04-01T03:04:02;9.20;99.90
49242;DHT22;35079;52.704;13.814;2023-04-01T03:06:28;9.10;99.90
49242;DHT22;35079;52.704;13.814;2023-04-01T03:08:54;9.20;99.90
49242;DHT22;35079;52.704;13.814;2023-04-01T03:11:19;9.30;99.90
49242;DHT22;35079;52.704;13.814;2023-04-01T03:13:46;9.20;99.90
49242;DHT22;35079;52.704;13.814;2023-04-01T03:16:12;9.40;99.90
49242;DHT22;35079;52.704;13.814;2023-04-01T03:18:37;9.40;99.90
49242;DHT22;35079;52.704;13.814;2023-04-01T03:21:18;9.30;99.90
49242;DHT22;35079;52.704;13.814;2023-04-01T03:23:44;9.30;99.90
49242;DHT22;35079;52.704;13.814;2023-04-01T03:26:10;9.20;99.90
49242;DHT22;35079;52.704;13.814;2023-04-01T03:28:36;9.20;99.90
49242;DHT22;35079;52.704;13.814;2023-04-01T03:31:01;9.30;99.90
49242;DHT22;35079;52.704;13.814;2023-04-01T03:33:27;9.30;99.90
49242;DHT22;35079;52.704;13.814;2023-04-01T03:35:53;9.30;99.90
49242;DHT22;35079;52.704;13.814;2023-04-01T03:38:18;9.20;99.90
49242;DHT22;35079;52.704;13.814;2023-04-01T03:40:44;9.20;99.90
49242;DHT22;35079;52.704;13.814;2023-04-01T03:43:10;9.20;99.90
49242;DHT22;35079;52.704;13.814;2023-04-01T03:45:46;9.20;99.90
49242;DHT22;35079;52.704;13.814;2023-04-01T03:48:13;9.20;99.90
49242;DHT22;35079;52.704;13.814;2023-04-01T03:50:38;9.30;99.90
49242;DHT22;35079;52.704;13.814;2023-04-01T03:53:04;9.20;99.90
49242;DHT22;35079;52.704;13.814;2023-04-01T03:55:29;9.20;99.90
49242;DHT22;35079;52.704;13.814;2023-04-01T03:57:55;9.30;99.90
49242;DHT22;35079;52.704;13.814;2023-04-01T04:00:21;9.20;99.90
49242;DHT22;35079;52.704;13.814;2023-04-01T04:02:46;9.20;99.90
49242;DHT22;35079;52.704;13.814;2023-04-01T04:05:12;9.30;99.90
49242;DHT22;35079;52.704;13.814;2023-04-01T04:07:38;9.20;99.90
49242;DHT22;35079;52.704;13.814;2023-04-01T04:10:05;9.30;99.90
49242;DHT22;35079;52.704;13.814;2023-04-01T04:12:31;9.20;99.90
49242;DHT22;35079;52.704;13.814;2023-04-01T04:14:56;9.30;99.90
49242;DHT22;35079;52.704;13.814;2023-04-01T04:17:22;9.30;99.90
49242;DHT22;35079;52.704;13.814;2023-04-01T04:19:47;9.30;99.90
49242;DHT22;35079;52.704;13.814;2023-04-01T04:22:13;9.20;99.90
49242;DHT22;35079;52.704;13.814;2023-04-01T04:24:39;9.20;99.90
49242;DHT22;35079;52.704;13.814;2023-04-01T04:27:05;9.20;99.90
49242;DHT22;35079;52.704;13.814;2023-04-01T04:29:30;9.20;99.90
49242;DHT22;35079;52.704;13.814;2023-04-01T04:31:56;9.20;99.90
49242;DHT22;35079;52.704;13.814;2023-04-01T04:34:21;9.40;99.90
49242;DHT22;35079;52.704;13.814;2023-04-01T04:36:48;9.30;99.90
49242;DHT22;35079;52.704;13.814;2023-04-01T04:39:13;9.40;99.90
49242;DHT22;35079;52.704;13.814;2023-04-01T04:41:39;9.30;99.90
49242;DHT22;35079;52.704;13.814;2023-04-01T04:44:05;9.30;99.90
49242;DHT22;35079;52.704;13.814;2023-04-01T04:46:31;9.20;99.90
49242;DHT22;35079;52.704;13.814;2023-04-01T04:48:56;9.40;99.90
49242;DHT22;35079;52.704;13.814;2023-04-01T04:51:23;9.30;99.90
49242;DHT22;35079;52.704;13.814;2023-04-01T04:53:49;9.30;99.90
49242;DHT22;35079;52.704;13.814;2023-04-01T04:56:20;9.30;99.90
49242;DHT22;35079;52.704;13.814;2023-04-01T04:58:46;9.40;99.90
49242;DHT22;35079;52.704;13.814;2023-04-01T05:01:14;9.40;99.90
49242;DHT22;35079;52.704;13.814;2023-04-01T05:03:41;9.40;99.90
49242;DHT22;35079;52.704;13.814;2023-04-01T05:06:08;9.40;99.90
49242;DHT22;35079;52.704;13.814;2023-04-01T05:08:35;9.30;99.90
49242;DHT22;35079;52.704;13.814;2023-04-01T05:11:01;9.30;99.90
49242;DHT22;35079;52.704;13.814;2023-04-01T05:13:27;9.40;99.90
49242;DHT22;35079;52.704;13.814;2023-04-01T05:15:53;9.40;99.90
49242;DHT22;35079;52.704;13.814;2023-04-01T05:18:18;9.50;99.90
49242;DHT22;35079;52.704;13.814;2023-04-01T05:20:49;9.50;99.90
49242;DHT22;35079;52.704;13.814;2023-04-01T05:23:15;9.50;99.90
49242;DHT22;35079;52.704;13.814;2023-04-01T05:25:41;9.40;99.90
49242;DHT22;35079;52.704;13.814;2023-04-01T05:28:07;9.50;99.90
49242;DHT22;35079;52.704;13.814;2023-04-01T05:30:33;9.50;99.90
49242;DHT22;35079;52.704;13.814;2023-04-01T05:32:59;9.40;99.90
49242;DHT22;35079;52.704;13.814;2023-04-01T05:35:24;9.50;99.90
49242;DHT22;35079;52.704;13.814;2023-04-01T05:37:50;9.40;99.90
49242;DHT22;35079;52.704;13.814;2023-04-01T05:40:16;9.50;99.90
49242;DHT22;35079;52.704;13.814;2023-04-01T05:42:42;9.50;99.90
49242;DHT22;35079;52.704;13.814;2023-04-01T05:45:08;9.40;99.90
49242;DHT22;35079;52.704;13.814;2023-04-01T05:47:34;9.50;99.90
49242;DHT22;35079;52.704;13.814;2023-04-01T05:50:00;9.50;99.90
49242;DHT22;35079;52.704;13.814;2023-04-01T05:52:25;9.50;99.90
49242;DHT22;35079;52.704;13.814;2023-04-01T05:54:51;9.40;99.90
49242;DHT22;35079;52.704;13.814;2023-04-01T05:57:16;9.40;99.90
49242;DHT22;35079;52.704;13.814;2023-04-01T05:59:42;9.50;99.90
49242;DHT22;35079;52.704;13.814;2023-04-01T06:02:09;9.40;99.90
49242;DHT22;35079;52.704;13.814;2023-04-01T06:04:38;9.30;99.90
49242;DHT22;35079;52.704;13.814;2023-04-01T06:07:16;9.30;99.90
49242;DHT22;35079;52.704;13.814;2023-04-01T06:09:42;9.20;99.90
49242;DHT22;35079;52.704;13.814;2023-04-01T06:23:41;9.00;99.90
49242;DHT22;35079;52.704;13.814;2023-04-01T06:26:49;9.10;99.90
49242;DHT22;35079;52.704;13.814;2023-04-01T06:29:25;9.00;99.90
49242;DHT22;35079;52.704;13.814;2023-04-01T06:41:11;8.80;99.90
49242;DHT22;35079;52.704;13.814;2023-04-01T06:44:01;8.90;99.90
49242;DHT22;35079;52.704;13.814;2023-04-01T06:52:11;8.70;99.90
49242;DHT22;35079;52.704;13.814;2023-04-01T06:54:42;8.80;99.90
49242;DHT22;35079;52.704;13.814;2023-04-01T06:57:41;8.80;99.90
49242;DHT22;35079;52.704;13.814;2023-04-01T07:02:54;8.70;99.90
49242;DHT22;35079;52.704;13.814;2023-04-01T07:05:24;8.70;99.90
49242;DHT22;35079;52.704;13.814;2023-04-01T07:07:54;8.70;99.90
49242;DHT22;35079;52.704;13.814;2023-04-01T07:10:47;8.60;99.90
49242;DHT22;35079;52.704;13.814;2023-04-01T07:13:22;8.60;99.90
49242;DHT22;35079;52.704;13.814;2023-04-01T07:15:57;8.60;99.90
49242;DHT22;35079;52.704;13.814;2023-04-01T07:18:28;8.60;99.90
49242;DHT22;35079;52.704;13.814;2023-04-01T07:20:54;8.60;99.90
49242;DHT22;35079;52.704;13.814;2023-04-01T07:23:23;8.60;99.90
49242;DHT22;35079;52.704;13.814;2023-04-01T07:25:56;8.70;99.90
49242;DHT22;35079;52.704;13.814;2023-04-01T07:28:30;8.60;99.90
49242;DHT22;35079;52.704;13.814;2023-04-01T07:31:18;8.50;99.90
49242;DHT22;35079;52.704;13.814;2023-04-01T07:33:57;8.60;99.90
49242;DHT22;35079;52.704;13.814;2023-04-01T07:39:26;8.70;99.90
49242;DHT22;35079;52.704;13.814;2023-04-01T07:47:33;8.50;99.90
49242;DHT22;35079;52.704;13.814;2023-04-01T07:57:38;8.60;99.90
49242;DHT22;35079;52.704;13.814;2023-04-01T08:03:14;8.50;99.90
49242;DHT22;35079;52.704;13.814;2023-04-01T08:05:52;8.50;99.90
49242;DHT22;35079;52.704;13.814;2023-04-01T08:08:19;8.40;99.90
49242;DHT22;35079;52.704;13.814;2023-04-01T08:11:21;8.50;99.90
49242;DHT22;35079;52.704;13.814;2023-04-01T08:14:09;8.50;99.90
49242;DHT22;35079;52.704;13.814;2023-04-01T08:19:38;8.60;99.90
49242;DHT22;35079;52.704;13.814;2023-04-01T08:25:24;8.50;99.90
49242;DHT22;35079;52.704;13.814;2023-04-01T08:28:03;8.60;99.90
49242;DHT22;35079;52.704;13.814;2023-04-01T08:30:54;8.70;99.90
49242;DHT22;35079;52.704;13.814;2023-04-01T08:33:31;8.60;99.90
49242;DHT22;35079;52.704;13.814;2023-04-01T08:36:05;8.60;99.90
49242;DHT22;35079;52.704;13.814;2023-04-01T08:47:00;8.90;99.90
49242;DHT22;35079;52.704;13.814;2023-04-01T08:49:42;9.00;99.90
49242;DHT22;35079;52.704;13.814;2023-04-01T08:52:40;9.00;99.90
49242;DHT22;35079;52.704;13.814;2023-04-01T08:55:27;9.20;99.90
49242;DHT22;35079;52.704;13.814;2023-04-01T09:01:06;9.00;99.90
49242;DHT22;35079;52.704;13.814;2023-04-01T09:26:18;9.20;99.90
49242;DHT22;35079;52.704;13.814;2023-04-01T09:36:47;9.10;99.90
49242;DHT22;35079;52.704;13.814;2023-04-01T09:44:37;9.10;99.90
49242;DHT22;35079;52.704;13.814;2023-04-01T09:55:49;8.80;99.90
49242;DHT22;35079;52.704;13.814;2023-04-01T10:15:28;8.70;99.90
49242;DHT22;35079;52.704;13.814;2023-04-01T10:49:10;8.70;99.90
49242;DHT22;35079;52.704;13.814;2023-04-01T11:25:48;8.70;99.90
49242;DHT22;35079;52.704;13.814;2023-04-01T11:31:26;8.80;99.90
49242;DHT22;35079;52.704;13.814;2023-04-01T11:37:06;8.80;99.90
49242;DHT22;35079;52.704;13.814;2023-04-01T11:42:51;8.80;99.90
49242;DHT22;35079;52.704;13.814;2023-04-01T11:57:21;8.90;99.90
49242;DHT22;35079;52.704;13.814;2023-04-01T12:00:10;9.00;99.90
49242;DHT22;35079;52.704;13.814;2023-04-01T12:10:57;8.80;99.90
49242;DHT22;35079;52.704;13.814;2023-04-01T12:13:42;8.70;99.90
49242;DHT22;35079;52.704;13.814;2023-04-01T12:19:41;8.50;99.90
49242;DHT22;35079;52.704;13.814;2023-04-01T12:24:55;8.30;99.90
49242;DHT22;35079;52.704;13.814;2023-04-01T12:27:41;8.30;99.90
49242;DHT22;35079;52.704;13.814;2023-04-01T12:30:18;8.30;99.90
49242;DHT22;35079;52.704;13.814;2023-04-01T12:35:42;8.30;99.90
49242;DHT22;35079;52.704;13.814;2023-04-01T12:39:06;8.10;99.90
49242;DHT22;35079;52.704;13.814;2023-04-01T12:55:42;8.20;99.90
49242;DHT22;35079;52.704;13.814;2023-04-01T13:24:30;8.30;99.90
49242;DHT22;35079;52.704;13.814;2023-04-01T13:27:23;8.30;99.90
49242;DHT22;35079;52.704;13.814;2023-04-01T13:30:20;8.10;99.90
49242;DHT22;35079;52.704;13.814;2023-04-01T13:41:34;8.00;99.90
49242;DHT22;35079;52.704;13.814;2023-04-01T13:47:04;8.00;99.90
49242;DHT22;35079;52.704;13.814;2023-04-01T13:50:02;8.00;99.90
49242;DHT22;35079;52.704;13.814;2023-04-01T13:58:38;8.30;99.90
49242;DHT22;35079;52.704;13.814;2023-04-01T14:06:40;8.20;99.90
49242;DHT22;35079;52.704;13.814;2023-04-01T14:23:32;7.80;99.90
49242;DHT22;35079;52.704;13.814;2023-04-01T14:26:09;7.90;99.90
49242;DHT22;35079;52.704;13.814;2023-04-01T14:50:51;7.60;99.90
49242;DHT22;35079;52.704;13.814;2023-04-01T14:53:37;7.60;99.90
49242;DHT22;35079;52.704;13.814;2023-04-01T14:56:07;7.70;99.90
49242;DHT22;35079;52.704;13.814;2023-04-01T15:09:45;7.30;99.90
49242;DHT22;35079;52.704;13.814;2023-04-01T15:12:40;7.30;99.90
49242;DHT22;35079;52.704;13.814;2023-04-01T15:20:47;7.20;99.90
49242;DHT22;35079;52.704;13.814;2023-04-01T15:23:22;7.20;99.90
49242;DHT22;35079;52.704;13.814;2023-04-01T15:28:43;7.20;99.90
49242;DHT22;35079;52.704;13.814;2023-04-01T15:36:41;6.90;99.90
49242;DHT22;35079;52.704;13.814;2023-04-01T15:46:58;6.90;99.90
49242;DHT22;35079;52.704;13.814;2023-04-01T15:49:37;6.70;99.90
49242;DHT22;35079;52.704;13.814;2023-04-01T15:52:13;6.70;99.90
49242;DHT22;35079;52.704;13.814;2023-04-01T15:57:51;6.70;99.90
49242;DHT22;35079;52.704;13.814;2023-04-01T16:00:28;6.70;99.90
49242;DHT22;35079;52.704;13.814;2023-04-01T16:16:22;6.20;99.90
49242;DHT22;35079;52.704;13.814;2023-04-01T16:25:14;6.30;99.90
49242;DHT22;35079;52.704;13.814;2023-04-01T16:28:19;6.30;99.90
49242;DHT22;35079;52.704;13.814;2023-04-01T16:31:42;6.20;99.90
49242;DHT22;35079;52.704;13.814;2023-04-01T16:34:21;6.10;99.90
49242;DHT22;35079;52.704;13.814;2023-04-01T16:37:00;6.10;99.90
49242;DHT22;35079;52.704;13.814;2023-04-01T16:42:40;6.10;99.90
49242;DHT22;35079;52.704;13.814;2023-04-01T16:48:00;6.00;99.90
49242;DHT22;35079;52.704;13.814;2023-04-01T16:54:13;5.80;99.90
49242;DHT22;35079;52.704;13.814;2023-04-01T16:56:52;5.80;99.90
49242;DHT22;35079;52.704;13.814;2023-04-01T16:59:40;5.80;99.90
49242;DHT22;35079;52.704;13.814;2023-04-01T17:04:48;5.80;99.90
49242;DHT22;35079;52.704;13.814;2023-04-01T17:07:38;5.70;99.90
49242;DHT22;35079;52.704;13.814;2023-04-01T17:10:22;5.80;99.90
49242;DHT22;35079;52.704;13.814;2023-04-01T17:18:20;5.70;99.90
49242;DHT22;35079;52.704;13.814;2023-04-01T17:21:18;5.70;99.90
49242;DHT22;35079;52.704;13.814;2023-04-01T17:26:16;5.60;99.90
49242;DHT22;35079;52.704;13.814;2023-04-01T17:28:52;5.60;99.90
49242;DHT22;35079;52.704;13.814;2023-04-01T17:34:35;5.50;99.90
49242;DHT22;35079;52.704;13.814;2023-04-01T17:42:47;5.40;99.90
49242;DHT22;35079;52.704;13.814;2023-04-01T17:45:27;5.50;99.90
49242;DHT22;35079;52.704;13.814;2023-04-01T17:50:59;5.40;99.90
49242;DHT22;35079;52.704;13.814;2023-04-01T18:17:54;5.10;99.90
49242;DHT22;35079;52.704;13.814;2023-04-01T18:20:31;5.00;99.90
49242;DHT22;35079;52.704;13.814;2023-04-01T18:23:24;5.00;99.90
49242;DHT22;35079;52.704;13.814;2023-04-01T18:26:02;5.10;99.90
49242;DHT22;35079;52.704;13.814;2023-04-01T18:31:24;5.10;99.90
49242;DHT22;35079;52.704;13.814;2023-04-01T18:33:58;5.00;99.90
49242;DHT22;35079;52.704;13.814;2023-04-01T18:39:45;5.00;99.90
49242;DHT22;35079;52.704;13.814;2023-04-01T18:42:16;5.00;99.90
49242;DHT22;35079;52.704;13.814;2023-04-01T18:44:51;5.00;99.90
49242;DHT22;35079;52.704;13.814;2023-04-01T18:50:37;5.10;99.90
49242;DHT22;35079;52.704;13.814;2023-04-01T18:53:25;5.00;99.90
49242;DHT22;35079;52.704;13.814;2023-04-01T18:58:36;4.80;99.90
49242;DHT22;35079;52.704;13.814;2023-04-01T19:04:17;4.70;99.90
49242;DHT22;35079;52.704;13.814;2023-04-01T19:07:00;4.80;99.90
49242;DHT22;35079;52.704;13.814;2023-04-01T19:09:31;4.80;99.90
49242;DHT22;35079;52.704;13.814;2023-04-01T19:23:05;4.60;99.90
49242;DHT22;35079;52.704;13.814;2023-04-01T19:25:35;4.70;99.90
49242;DHT22;35079;52.704;13.814;2023-04-01T19:37:02;4.60;99.90
49242;DHT22;35079;52.704;13.814;2023-04-01T19:43:03;4.60;99.90
49242;DHT22;35079;52.704;13.814;2023-04-01T19:45:46;4.60;99.90
49242;DHT22;35079;52.704;13.814;2023-04-01T19:48:44;4.60;99.90
49242;DHT22;35079;52.704;13.814;2023-04-01T19:57:00;4.60;99.90
49242;DHT22;35079;52.704;13.814;2023-04-01T19:59:42;4.60;99.90
49242;DHT22;35079;52.704;13.814;2023-04-01T20:04:48;4.50;99.90
49242;DHT22;35079;52.704;13.814;2023-04-01T20:07:27;4.60;99.90
49242;DHT22;35079;52.704;13.814;2023-04-01T20:15:45;4.40;99.90
49242;DHT22;35079;52.704;13.814;2023-04-01T20:18:33;4.40;99.90
49242;DHT22;35079;52.704;13.814;2023-04-01T20:21:06;4.20;99.90
49242;DHT22;35079;52.704;13.814;2023-04-01T20:23:52;4.30;99.90
49242;DHT22;35079;52.704;13.814;2023-04-01T20:26:23;4.20;99.90
49242;DHT22;35079;52.704;13.814;2023-04-01T20:31:40;4.00;99.90
49242;DHT22;35079;52.704;13.814;2023-04-01T20:37:32;3.90;99.90
49242;DHT22;35079;52.704;13.814;2023-04-01T20:45:33;4.00;99.90
49242;DHT22;35079;52.704;13.814;2023-04-01T20:51:07;4.00;99.90
49242;DHT22;35079;52.704;13.814;2023-04-01T20:53:50;3.90;99.90
49242;DHT22;35079;52.704;13.814;2023-04-01T20:56:30;4.00;99.90
49242;DHT22;35079;52.704;13.814;2023-04-01T21:15:21;3.80;99.90
49242;DHT22;35079;52.704;13.814;2023-04-01T21:26:26;3.70;99.90
49242;DHT22;35079;52.704;13.814;2023-04-01T21:31:59;3.70;99.90
49242;DHT22;35079;52.704;13.814;2023-04-01T21:34:37;3.70;99.90
49242;DHT22;35079;52.704;13.814;2023-04-01T21:43:15;3.70;99.90
49242;DHT22;35079;52.704;13.814;2023-04-01T21:51:30;3.60;99.90
49242;DHT22;35079;52.704;13.814;2023-04-01T22:13:48;3.70;99.90
49242;DHT22;35079;52.704;13.814;2023-04-01T22:16:21;3.60;99.90
49242;DHT22;35079;52.704;13.814;2023-04-01T22:19:32;3.60;99.90
49242;DHT22;35079;52.704;13.814;2023-04-01T22:22:24;3.60;99.90
49242;DHT22;35079;52.704;13.814;2023-04-01T22:25:07;3.60;99.90
49242;DHT22;35079;52.704;13.814;2023-04-01T22:27:48;3.70;99.90
49242;DHT22;35079;52.704;13.814;2023-04-01T22:30:25;3.60;99.90
49242;DHT22;35079;52.704;13.814;2023-04-01T22:33:07;3.60;99.90
49242;DHT22;35079;52.704;13.814;2023-04-01T22:43:56;3.40;99.90
49242;DHT22;35079;52.704;13.814;2023-04-01T22:56:51;3.50;99.90
49242;DHT22;35079;52.704;13.814;2023-04-01T23:02:16;3.50;99.90
49242;DHT22;35079;52.704;13.814;2023-04-01T23:04:49;3.40;99.90
49242;DHT22;35079;52.704;13.814;2023-04-01T23:09:49;3.40;99.90
49242;DHT22;35079;52.704;13.814;2023-04-01T23:12:16;3.40;99.90
49242;DHT22;35079;52.704;13.814;2023-04-01T23:14:56;3.40;99.90
49242;DHT22;35079;52.704;13.814;2023-04-01T23:23:58;3.40;99.90
49242;DHT22;35079;52.704;13.814;2023-04-01T23:28:53;3.40;99.90
49242;DHT22;35079;52.704;13.814;2023-04-01T23:36:37;3.30;99.90
49242;DHT22;35079;52.704;13.814;2023-04-01T23:39:18;3.30;99.90
49242;DHT22;35079;52.704;13.814;2023-04-01T23:41:46;3.30;99.90
49242;DHT22;35079;52.704;13.814;2023-04-01T23:44:13;3.20;99.90
49242;DHT22;35079;52.704;13.814;2023-04-01T23:46:41;3.10;99.90
49242;DHT22;35079;52.704;13.814;2023-04-01T23:49:20;3.10;99.90
49242;DHT22;35079;52.704;13.814;2023-04-01T23:51:56;3.20;99.90
49242;DHT22;35079;52.704;13.814;2023-04-01T23:54:33;3.10;99.90
49242;DHT22;35079;52.704;13.814;2023-04-01T23:57:05;3.20;99.90
49242;DHT22;35079;52.704;13.814;2023-04-01T23:59:35;3.20;99.90
